Time;durP1;ratioP1;P1;durP2;ratioP2;P2;SDS_P1;SDS_P2;PMS_P1;PMS_P2;Temp;Humidity;BMP_temperature;BMP_pressure;BME280_temperature;BME280_humidity;BME280_pressure;Samples;Min_cycle;Max_cycle;Signal;HPM_P1;HPM_P2
2021/12/17 00:06:50;;;;;;;4.63;2.13;;;21.40;81.50;;;;;;7873903;28;20200;-48
2021/12/17 00:10:35;;;;;;;3.95;1.90;;;21.30;81.40;;;;;;7873473;28;20255;-51
2021/12/17 00:14:25;;;;;;;3.90;2.10;;;21.30;81.30;;;;;;7874001;28;20768;-50
2021/12/17 00:18:18;;;;;;;5.35;1.90;;;21.30;81.20;;;;;;7873082;28;20288;-51
2021/12/17 00:51:16;;;;;;;2.42;1.90;;;20.90;81.10;;;;;;7872365;28;20173;-50
2021/12/17 00:54:52;;;;;;;4.95;1.70;;;21.00;81.20;;;;;;7872188;28;20181;-50
2021/12/17 00:58:37;;;;;;;5.43;2.05;;;20.90;81.00;;;;;;7871775;28;20197;-50
2021/12/17 01:02:29;;;;;;;3.85;2.15;;;20.90;81.00;;;;;;7872509;28;20177;-51
2021/12/17 01:06:15;;;;;;;3.10;1.88;;;20.90;81.00;;;;;;7872497;28;20181;-50
2021/12/17 01:10:06;;;;;;;5.22;1.90;;;20.90;80.90;;;;;;7871479;28;20653;-50
2021/12/17 01:13:52;;;;;;;3.95;1.90;;;20.90;80.80;;;;;;7872193;28;20536;-50
2021/12/17 01:17:41;;;;;;;3.22;1.90;;;20.90;80.70;;;;;;7871329;28;20614;-50
2021/12/17 01:21:38;;;;;;;3.60;1.92;;;20.90;80.70;;;;;;7872275;28;20247;-49
2021/12/17 01:38:52;;;;;;;7.00;2.60;;;21.10;80.30;;;;;;7871193;28;20229;-49
2021/12/17 01:42:06;;;;;;;5.03;2.40;;;21.20;79.60;;;;;;7871375;28;20221;-50
2021/12/17 01:45:52;;;;;;;3.83;2.40;;;21.20;79.00;;;;;;7871587;28;20185;-49
2021/12/17 02:01:17;;;;;;;4.68;2.30;;;21.50;77.80;;;;;;7870569;28;20173;-50
2021/12/17 02:05:03;;;;;;;4.95;2.70;;;21.50;77.60;;;;;;7870688;28;20192;-50
2021/12/17 02:08:51;;;;;;;5.30;2.63;;;21.50;77.50;;;;;;7868746;28;20270;-50
2021/12/17 02:12:59;;;;;;;6.97;2.95;;;21.60;77.30;;;;;;7870740;28;20181;-50
2021/12/17 02:28:45;;;;;;;4.60;2.65;;;21.60;76.70;;;;;;7869160;28;20213;-50
2021/12/17 02:32:33;;;;;;;5.28;2.90;;;21.60;77.60;;;;;;7869903;28;20177;-51
2021/12/17 02:36:23;;;;;;;6.63;3.20;;;21.50;76.60;;;;;;7869856;28;20181;-52
2021/12/17 02:48:21;;;;;;;6.57;3.03;;;21.50;76.50;;;;;;7868731;28;20678;-50
2021/12/17 02:52:08;;;;;;;4.93;2.97;;;21.40;76.40;;;;;;7869688;28;20177;-50
2021/12/17 02:55:57;;;;;;;3.67;2.75;;;21.40;76.40;;;;;;7869941;28;20173;-51
2021/12/17 02:59:42;;;;;;;6.57;3.38;;;21.40;76.40;;;;;;7868391;28;20250;-50
2021/12/17 03:03:31;;;;;;;6.40;3.55;;;21.40;76.30;;;;;;7869232;28;20197;-50
2021/12/17 03:07:17;;;;;;;5.72;3.30;;;21.40;76.20;;;;;;7869159;28;20309;-51
2021/12/17 03:11:03;;;;;;;5.03;3.33;;;21.40;76.10;;;;;;7868698;28;20189;-50
2021/12/17 03:14:57;;;;;;;5.22;3.72;;;21.50;76.10;;;;;;7869058;28;20177;-50
2021/12/17 03:18:58;;;;;;;4.15;3.03;;;21.50;76.10;;;;;;7868055;28;20201;-50
2021/12/17 03:26:49;;;;;;;5.45;3.47;;;21.50;75.80;;;;;;7868753;28;20201;-52
2021/12/17 03:30:35;;;;;;;5.45;3.58;;;21.60;75.70;;;;;;7868258;28;20250;-50
2021/12/17 03:34:21;;;;;;;7.28;3.40;;;21.50;75.50;;;;;;7868863;28;20177;-50
2021/12/17 03:38:07;;;;;;;6.13;3.30;;;21.50;75.50;;;;;;7868211;28;20212;-50
2021/12/17 03:41:53;;;;;;;5.40;3.78;;;21.50;75.50;;;;;;7868719;28;20239;-52
2021/12/17 03:45:42;;;;;;;5.68;3.30;;;21.50;75.50;;;;;;7868868;28;20706;-50
2021/12/17 03:49:27;;;;;;;6.45;3.63;;;21.50;75.50;;;;;;7867778;28;20678;-50
2021/12/17 03:53:12;;;;;;;4.05;3.20;;;21.40;75.40;;;;;;7868614;28;20654;-51
2021/12/17 03:56:59;;;;;;;6.47;3.60;;;21.40;75.40;;;;;;7868494;28;20288;-49
2021/12/17 04:00:46;;;;;;;5.25;3.45;;;21.40;75.50;;;;;;7868004;28;20185;-50
2021/12/17 04:04:31;;;;;;;6.20;3.80;;;21.30;75.40;;;;;;7868583;28;20256;-50
2021/12/17 04:08:17;;;;;;;5.57;3.75;;;21.20;75.50;;;;;;7868716;28;20225;-52
2021/12/17 04:12:07;;;;;;;5.72;3.67;;;21.20;75.60;;;;;;7870058;28;20248;-50
2021/12/17 04:15:59;;;;;;;7.25;4.40;;;21.20;75.50;;;;;;7869871;28;20173;-49
2021/12/17 04:19:44;;;;;;;6.78;4.03;;;21.10;75.40;;;;;;7869441;28;20205;-49
2021/12/17 04:23:31;;;;;;;6.00;3.78;;;21.10;75.40;;;;;;7869333;28;20189;-53
2021/12/17 04:27:17;;;;;;;6.20;3.85;;;21.00;75.50;;;;;;7869106;28;20601;-50
2021/12/17 04:31:02;;;;;;;7.40;4.10;;;21.00;75.60;;;;;;7870102;28;20255;-52
2021/12/17 04:34:48;;;;;;;5.95;3.72;;;21.00;75.50;;;;;;7874451;28;20206;-50
2021/12/17 04:38:33;;;;;;;7.43;4.07;;;21.00;75.70;;;;;;7873648;28;20228;-50
2021/12/17 04:42:28;;;;;;;6.28;4.25;;;20.90;75.70;;;;;;7873894;28;20638;-50
2021/12/17 04:58:07;;;;;;;9.43;4.38;;;20.80;75.60;;;;;;7873298;28;20256;-52
2021/12/17 05:01:52;;;;;;;6.97;4.20;;;20.80;75.60;;;;;;7873939;28;20268;-50
2021/12/17 05:05:38;;;;;;;10.25;4.82;;;20.70;75.60;;;;;;7873537;28;20169;-50
2021/12/17 05:09:41;;;;;;;7.35;4.78;;;20.70;75.60;;;;;;7872484;28;20696;-51
2021/12/17 05:21:35;;;;;;;8.35;4.65;;;20.60;75.70;;;;;;7872822;28;20173;-50
2021/12/17 05:25:21;;;;;;;8.15;4.88;;;20.60;75.80;;;;;;7873209;28;20724;-50
2021/12/17 05:29:07;;;;;;;11.48;4.88;;;20.60;75.80;;;;;;7872147;28;20514;-50
2021/12/17 05:32:53;;;;;;;9.82;4.93;;;20.60;76.00;;;;;;7872498;28;20173;-50
2021/12/17 05:36:38;;;;;;;9.57;4.90;;;20.60;76.00;;;;;;7869620;28;20182;-55
2021/12/17 05:40:24;;;;;;;15.10;5.47;;;20.50;76.20;;;;;;7836161;28;20205;-50
2021/12/17 05:44:09;;;;;;;17.67;5.18;;;20.50;76.10;;;;;;7840795;28;20174;-51
2021/12/17 05:47:55;;;;;;;14.15;4.50;;;20.50;76.20;;;;;;7841285;28;20459;-50
2021/12/17 05:51:40;;;;;;;17.55;5.30;;;20.50;76.10;;;;;;7841221;28;20206;-51
2021/12/17 05:55:26;;;;;;;19.63;5.07;;;20.50;76.20;;;;;;7840672;28;20257;-51
2021/12/17 05:59:12;;;;;;;17.50;5.10;;;20.50;75.70;;;;;;7840840;28;20205;-52
2021/12/17 06:02:59;;;;;;;16.60;5.85;;;20.40;75.40;;;;;;7840811;28;20181;-51
2021/12/17 06:06:47;;;;;;;17.38;5.72;;;20.40;75.50;;;;;;7840147;28;20197;-50
2021/12/17 06:10:33;;;;;;;13.43;5.43;;;20.40;75.70;;;;;;7840447;28;20201;-50
2021/12/17 06:14:18;;;;;;;16.92;5.78;;;20.40;75.80;;;;;;7841288;28;20638;-52
2021/12/17 06:18:04;;;;;;;11.50;5.60;;;20.30;75.80;;;;;;7841014;28;20584;-49
2021/12/17 06:21:49;;;;;;;17.23;6.43;;;20.30;75.70;;;;;;7841161;28;20178;-49
2021/12/17 06:25:34;;;;;;;13.82;5.60;;;20.30;75.50;;;;;;7838544;28;20287;-52
2021/12/17 06:29:20;;;;;;;21.63;5.65;;;20.30;75.30;;;;;;7869399;28;20254;-51
2021/12/17 06:33:05;;;;;;;13.60;5.63;;;20.30;75.50;;;;;;7872229;28;20681;-49
2021/12/17 06:36:51;;;;;;;23.08;6.20;;;20.20;75.70;;;;;;7871571;28;20177;-52
2021/12/17 06:40:36;;;;;;;17.23;5.53;;;20.20;75.60;;;;;;7871129;28;20584;-49
2021/12/17 06:44:25;;;;;;;15.50;5.82;;;20.20;75.70;;;;;;7871399;28;20177;-49
2021/12/17 06:48:10;;;;;;;13.90;5.35;;;20.10;75.80;;;;;;7870913;28;20215;-50
2021/12/17 07:00:20;;;;;;;14.60;5.90;;;20.10;75.80;;;;;;7838694;28;20674;-49
2021/12/17 07:09:08;;;;;;;15.75;5.93;;;20.00;75.40;;;;;;7838389;28;20217;-49
2021/12/17 07:21:08;;;;;;;9.65;5.50;;;20.00;75.70;;;;;;7818258;28;20208;-50
2021/12/17 07:28:07;;;;;;;12.27;5.43;;;20.00;75.70;;;;;;7870249;28;20542;-49
2021/12/17 07:33:40;;;;;;;11.77;4.80;;;20.00;75.90;;;;;;7870942;28;20181;-51
2021/12/17 07:41:02;;;;;;;13.43;5.57;;;20.00;76.00;;;;;;7866962;28;20174;-52
2021/12/17 07:44:48;;;;;;;7.03;4.90;;;20.00;76.00;;;;;;7870078;28;20204;-51
2021/12/17 07:48:34;;;;;;;8.35;5.00;;;20.00;75.90;;;;;;7869850;28;20213;-50
2021/12/17 07:52:20;;;;;;;7.10;4.75;;;20.00;75.90;;;;;;7870405;28;20172;-50
2021/12/17 07:56:09;;;;;;;8.38;4.65;;;20.00;76.00;;;;;;7869226;28;20255;-50
2021/12/17 07:59:54;;;;;;;8.80;4.78;;;20.00;75.90;;;;;;7869579;28;20613;-49
2021/12/17 08:03:40;;;;;;;6.60;4.10;;;20.00;75.90;;;;;;7869047;28;20177;-49
2021/12/17 08:07:26;;;;;;;7.35;4.45;;;20.00;75.80;;;;;;7872460;28;20559;-52
2021/12/17 08:11:12;;;;;;;9.70;4.93;;;20.00;75.80;;;;;;7875184;28;20177;-50
2021/12/17 08:14:57;;;;;;;6.35;4.47;;;20.00;75.80;;;;;;7875562;28;20181;-50
2021/12/17 08:18:55;;;;;;;8.35;4.68;;;20.00;75.70;;;;;;7874745;28;20200;-49
2021/12/17 08:30:43;;;;;;;7.57;4.85;;;20.00;75.60;;;;;;7875341;28;20177;-49
2021/12/17 08:34:29;;;;;;;6.72;4.72;;;20.00;75.50;;;;;;7875034;28;20180;-49
2021/12/17 08:38:15;;;;;;;6.63;4.78;;;20.00;75.70;;;;;;7874621;28;20197;-51
2021/12/17 08:42:01;;;;;;;7.45;4.95;;;20.00;75.60;;;;;;7874600;28;20179;-50
2021/12/17 08:45:47;;;;;;;6.55;4.75;;;20.00;75.60;;;;;;7874373;28;20181;-50
2021/12/17 08:49:32;;;;;;;5.55;4.50;;;20.00;75.70;;;;;;7873770;28;20288;-52
2021/12/17 08:53:18;;;;;;;6.75;4.70;;;19.90;75.50;;;;;;7874253;28;20273;-49
2021/12/17 08:57:04;;;;;;;6.97;4.75;;;20.00;75.50;;;;;;7873669;28;20224;-49
2021/12/17 09:00:50;;;;;;;8.63;5.20;;;20.00;75.50;;;;;;7873660;28;20226;-49
2021/12/17 09:04:35;;;;;;;7.63;5.25;;;19.90;75.40;;;;;;7873914;28;20177;-50
2021/12/17 09:08:21;;;;;;;9.55;4.88;;;19.90;75.50;;;;;;7873387;28;20292;-50
2021/12/17 09:12:08;;;;;;;5.85;4.38;;;19.90;75.60;;;;;;7873903;28;20181;-51
2021/12/17 09:15:54;;;;;;;6.95;4.85;;;19.90;75.60;;;;;;7873016;28;20257;-49
2021/12/17 09:19:40;;;;;;;6.32;4.85;;;19.90;75.70;;;;;;7872469;28;20618;-49
2021/12/17 09:23:25;;;;;;;9.27;4.93;;;19.90;75.80;;;;;;7873123;28;20178;-49
2021/12/17 09:27:11;;;;;;;8.57;5.05;;;19.90;75.50;;;;;;7871226;28;20302;-52
2021/12/17 09:30:56;;;;;;;8.90;5.35;;;19.90;75.00;;;;;;7873293;28;20173;-51
2021/12/17 09:34:42;;;;;;;12.13;6.40;;;19.80;75.10;;;;;;7872859;28;20256;-50
2021/12/17 09:38:28;;;;;;;9.60;5.28;;;19.80;75.00;;;;;;7873660;28;20205;-51
2021/12/17 09:42:14;;;;;;;20.27;6.07;;;19.80;75.20;;;;;;7873484;28;20206;-52
2021/12/17 09:46:00;;;;;;;15.15;5.53;;;19.80;75.10;;;;;;7873071;28;20174;-50
2021/12/17 09:49:45;;;;;;;14.70;6.88;;;19.90;75.40;;;;;;7872295;28;20252;-50
2021/12/17 09:53:33;;;;;;;16.42;6.97;;;19.90;74.90;;;;;;7872982;28;20177;-53
2021/12/17 09:57:20;;;;;;;17.17;8.10;;;19.90;74.90;;;;;;7872915;28;20196;-50
2021/12/17 10:01:06;;;;;;;16.30;8.30;;;19.90;74.80;;;;;;7872232;28;20185;-52
2021/12/17 10:04:54;;;;;;;15.55;8.38;;;19.90;75.50;;;;;;7872433;28;20185;-50
2021/12/17 10:08:48;;;;;;;15.30;8.30;;;19.90;74.70;;;;;;7871859;28;20228;-52
2021/12/17 10:12:35;;;;;;;15.27;7.55;;;19.90;74.80;;;;;;7872050;28;20641;-49
2021/12/17 10:16:21;;;;;;;13.93;6.40;;;20.00;75.00;;;;;;7872912;28;20199;-50
2021/12/17 10:20:07;;;;;;;16.10;7.05;;;20.00;75.40;;;;;;7872516;28;20193;-50
2021/12/17 10:23:54;;;;;;;16.90;6.35;;;20.00;75.40;;;;;;7872389;28;20193;-49
2021/12/17 10:27:41;;;;;;;13.43;5.93;;;20.00;75.50;;;;;;7871703;28;20205;-49
2021/12/17 10:31:30;;;;;;;15.00;5.03;;;20.10;75.40;;;;;;7871808;28;20234;-50
2021/12/17 10:35:18;;;;;;;9.50;5.07;;;20.10;75.20;;;;;;7871878;28;20234;-49
2021/12/17 10:39:11;;;;;;;12.68;6.18;;;20.10;75.10;;;;;;7871745;28;20283;-51
2021/12/17 10:43:07;;;;;;;10.73;5.97;;;20.10;75.40;;;;;;7872283;28;20264;-49
2021/12/17 10:47:15;;;;;;;13.98;6.00;;;20.20;75.10;;;;;;7872104;28;20777;-51
2021/12/17 10:51:07;;;;;;;14.07;4.60;;;20.20;75.60;;;;;;7871181;28;20264;-49
2021/12/17 10:55:11;;;;;;;5.95;3.22;;;20.20;75.80;;;;;;7871133;28;20173;-49
2021/12/17 10:59:06;;;;;;;6.88;3.75;;;20.20;76.20;;;;;;7870865;28;20247;-50
2021/12/17 11:02:53;;;;;;;9.70;3.40;;;20.30;76.30;;;;;;7872259;28;20173;-51
2021/12/17 11:06:46;;;;;;;6.70;3.40;;;20.40;77.00;;;;;;7871490;28;20260;-50
2021/12/17 11:10:32;;;;;;;10.20;3.58;;;20.40;77.20;;;;;;7871397;28;20177;-50
2021/12/17 11:14:22;;;;;;;8.15;3.25;;;20.50;77.20;;;;;;7871599;28;20238;-49
2021/12/17 11:18:08;;;;;;;8.48;3.47;;;20.50;77.10;;;;;;7870987;28;20621;-50
2021/12/17 11:21:53;;;;;;;11.00;3.63;;;20.50;76.80;;;;;;7871407;28;20177;-50
2021/12/17 11:25:42;;;;;;;8.23;3.80;;;20.60;76.70;;;;;;7871492;28;20189;-49
2021/12/17 11:29:28;;;;;;;13.63;3.88;;;20.60;76.60;;;;;;7868127;28;20219;-49
2021/12/17 11:33:14;;;;;;;10.18;3.47;;;20.60;76.60;;;;;;7870775;28;20174;-52
2021/12/17 11:37:02;;;;;;;12.40;3.80;;;20.60;76.50;;;;;;7870616;28;20200;-51
2021/12/17 11:40:56;;;;;;;9.38;4.20;;;20.60;76.50;;;;;;7873071;28;20185;-50
2021/12/17 11:44:44;;;;;;;9.60;3.38;;;20.60;76.50;;;;;;7876909;28;20658;-51
2021/12/17 11:48:32;;;;;;;17.90;4.20;;;20.60;76.70;;;;;;7876473;28;20213;-49
2021/12/17 11:52:35;;;;;;;7.50;3.72;;;20.70;76.90;;;;;;7876467;28;20181;-50
2021/12/17 11:56:41;;;;;;;14.85;3.67;;;20.70;76.80;;;;;;7876285;28;20239;-50
2021/12/17 12:00:47;;;;;;;11.80;3.50;;;20.70;76.90;;;;;;7876350;28;20209;-53
2021/12/17 12:04:32;;;;;;;9.63;3.00;;;20.70;76.60;;;;;;7876371;28;20184;-49
2021/12/17 12:08:49;;;;;;;9.20;4.10;;;20.70;76.60;;;;;;7875573;28;20702;-49
2021/12/17 12:12:38;;;;;;;7.32;3.22;;;20.70;76.50;;;;;;7874770;28;20176;-49
2021/12/17 12:16:25;;;;;;;11.50;3.20;;;20.70;76.80;;;;;;7875484;28;20605;-52
2021/12/17 12:20:49;;;;;;;8.00;3.38;;;20.70;76.80;;;;;;7875352;28;20780;-50
2021/12/17 12:24:35;;;;;;;6.88;3.53;;;20.70;76.80;;;;;;7875364;28;20176;-50
2021/12/17 12:28:46;;;;;;;8.05;3.63;;;20.70;76.80;;;;;;7875045;28;20299;-50
2021/12/17 12:32:31;;;;;;;8.82;3.47;;;20.70;76.80;;;;;;7875891;28;20174;-50
2021/12/17 12:36:17;;;;;;;7.25;3.13;;;20.70;77.00;;;;;;7875688;28;20647;-49
2021/12/17 12:40:15;;;;;;;7.55;3.30;;;20.70;77.10;;;;;;7875051;28;20201;-50
2021/12/17 12:44:00;;;;;;;6.40;2.80;;;20.70;77.20;;;;;;7875726;28;20185;-49
2021/12/17 12:47:55;;;;;;;3.65;2.80;;;20.80;77.30;;;;;;7875287;28;20246;-51
2021/12/17 12:51:40;;;;;;;11.43;2.78;;;20.80;77.30;;;;;;7874835;28;20181;-52
2021/12/17 12:55:43;;;;;;;9.25;3.35;;;20.80;77.00;;;;;;7875225;28;20773;-49
2021/12/17 12:59:31;;;;;;;9.75;3.30;;;20.90;77.10;;;;;;7874824;28;20292;-52
2021/12/17 13:03:23;;;;;;;8.65;3.03;;;21.00;77.00;;;;;;7875001;28;20193;-52
2021/12/17 13:07:08;;;;;;;10.63;2.97;;;21.00;76.90;;;;;;7874775;28;20843;-51
2021/12/17 13:10:58;;;;;;;8.98;3.25;;;21.10;76.80;;;;;;7874870;28;20529;-49
2021/12/17 13:14:47;;;;;;;8.35;3.20;;;21.10;76.70;;;;;;7861387;28;20644;-48
2021/12/17 13:22:42;;;;;;;5.80;3.08;;;21.20;76.70;;;;;;7872229;28;20193;-48
2021/12/17 13:26:28;;;;;;;6.88;3.20;;;21.20;76.60;;;;;;7870433;28;20547;-49
2021/12/17 13:30:13;;;;;;;9.40;3.15;;;21.20;76.50;;;;;;7871126;28;20205;-49
2021/12/17 13:33:59;;;;;;;7.28;3.20;;;21.20;76.50;;;;;;7871038;28;20176;-49
2021/12/17 13:37:45;;;;;;;4.75;3.40;;;21.20;76.60;;;;;;7871061;28;20205;-49
2021/12/17 13:41:39;;;;;;;7.30;3.38;;;21.20;76.60;;;;;;7870832;28;20212;-52
2021/12/17 13:45:25;;;;;;;6.70;3.45;;;21.20;76.70;;;;;;7870520;28;20227;-52
2021/12/17 13:49:11;;;;;;;6.15;3.20;;;21.10;76.60;;;;;;7870077;28;20240;-50
2021/12/17 13:53:01;;;;;;;5.50;3.00;;;21.20;76.70;;;;;;7870611;28;20188;-49
2021/12/17 13:57:04;;;;;;;4.35;3.30;;;21.10;76.60;;;;;;7870369;28;20260;-51
2021/12/17 14:00:59;;;;;;;6.10;3.30;;;21.10;76.60;;;;;;7870791;28;20177;-49
2021/12/17 14:04:58;;;;;;;8.50;3.38;;;21.10;76.70;;;;;;7870547;28;20180;-49
2021/12/17 14:08:44;;;;;;;4.63;3.08;;;21.10;76.60;;;;;;7864489;28;20202;-49
2021/12/17 14:12:32;;;;;;;8.48;3.67;;;21.00;76.60;;;;;;7844100;28;20185;-52
2021/12/17 14:16:33;;;;;;;10.75;4.05;;;21.00;76.40;;;;;;7870337;28;20166;-52
2021/12/17 14:20:23;;;;;;;7.95;3.30;;;20.90;76.10;;;;;;7843039;28;20554;-52
2021/12/17 14:24:26;;;;;;;9.68;3.25;;;20.90;76.40;;;;;;7870240;28;20183;-51
2021/12/17 14:28:23;;;;;;;6.32;3.45;;;20.90;76.40;;;;;;7869805;28;20243;-49
2021/12/17 14:32:18;;;;;;;15.25;3.88;;;20.90;76.60;;;;;;7869672;28;20272;-52
2021/12/17 14:36:10;;;;;;;10.10;3.65;;;20.90;77.00;;;;;;7869627;28;20634;-49
2021/12/17 14:39:57;;;;;;;9.05;3.03;;;20.90;77.20;;;;;;7868871;28;20205;-49
2021/12/17 14:43:56;;;;;;;17.33;3.70;;;21.10;77.60;;;;;;7869668;28;20189;-52
2021/12/17 14:47:52;;;;;;;11.10;3.55;;;21.20;77.90;;;;;;7869511;28;20209;-49
2021/12/17 15:03:55;;;;;;;13.80;3.63;;;21.80;78.00;;;;;;7839032;28;20213;-51
2021/12/17 15:07:41;;;;;;;13.13;3.78;;;21.90;78.30;;;;;;7859704;28;20217;-49
2021/12/17 15:11:37;;;;;;;23.65;3.33;;;22.00;78.40;;;;;;7869382;28;20258;-49
2021/12/17 15:15:25;;;;;;;14.43;3.55;;;22.00;78.60;;;;;;7869361;28;20267;-52
2021/12/17 15:19:10;;;;;;;13.43;3.45;;;22.20;78.70;;;;;;7870361;28;20612;-50
2021/12/17 15:22:56;;;;;;;13.98;3.13;;;22.30;78.60;;;;;;7870596;28;20200;-52
2021/12/17 15:26:42;;;;;;;13.07;3.10;;;22.40;78.50;;;;;;7870815;28;20189;-52
2021/12/17 15:30:31;;;;;;;11.25;2.90;;;22.50;78.40;;;;;;7870221;28;20255;-50
2021/12/17 15:34:17;;;;;;;12.18;2.97;;;22.60;78.30;;;;;;7870064;28;20185;-50
2021/12/17 15:38:07;;;;;;;9.65;4.25;;;22.60;78.10;;;;;;7869478;28;20331;-50
2021/12/17 15:41:54;;;;;;;16.15;3.95;;;22.70;77.30;;;;;;7870424;28;20654;-53
2021/12/17 15:45:42;;;;;;;10.88;4.90;;;22.70;77.60;;;;;;7870146;28;20188;-50
2021/12/17 15:49:27;;;;;;;13.30;4.53;;;22.60;77.30;;;;;;7870117;28;20239;-51
2021/12/17 15:53:13;;;;;;;19.88;4.40;;;22.60;77.20;;;;;;7870615;28;20252;-52
2021/12/17 15:56:59;;;;;;;17.35;4.20;;;22.50;77.20;;;;;;7870358;28;20249;-51
2021/12/17 16:00:44;;;;;;;16.33;4.32;;;22.50;77.20;;;;;;7870417;28;20174;-50
2021/12/17 16:04:35;;;;;;;14.82;4.35;;;22.40;77.20;;;;;;7870566;28;20188;-51
2021/12/17 16:08:20;;;;;;;12.63;3.25;;;22.30;77.10;;;;;;7869932;28;20213;-50
2021/12/17 16:16:51;;;;;;;8.80;3.63;;;22.30;77.30;;;;;;7870387;28;20178;-50
2021/12/17 16:24:25;;;;;;;9.50;3.83;;;22.10;77.40;;;;;;7870511;28;20538;-50
2021/12/17 16:28:11;;;;;;;11.52;3.40;;;22.10;77.20;;;;;;7873059;28;20270;-51
2021/12/17 16:31:56;;;;;;;9.52;3.55;;;22.20;77.20;;;;;;7872999;28;20174;-53
2021/12/17 16:35:42;;;;;;;14.93;4.10;;;22.20;77.00;;;;;;7873418;28;20185;-52
2021/12/17 16:39:27;;;;;;;6.38;3.35;;;22.30;76.90;;;;;;7872509;28;20679;-51
2021/12/17 16:43:13;;;;;;;8.13;3.65;;;22.30;76.70;;;;;;7872338;28;20219;-52
2021/12/17 16:47:01;;;;;;;7.43;3.35;;;22.30;76.50;;;;;;7872449;28;20197;-52
2021/12/17 16:50:47;;;;;;;10.23;4.05;;;22.30;76.30;;;;;;7872695;28;20642;-52
2021/12/17 16:54:32;;;;;;;5.55;3.33;;;22.20;76.00;;;;;;7871723;28;20624;-51
2021/12/17 16:58:18;;;;;;;7.20;3.20;;;22.20;76.20;;;;;;7872126;28;20201;-50
2021/12/17 17:02:04;;;;;;;11.13;3.55;;;22.10;76.30;;;;;;7871881;28;20272;-54
2021/12/17 17:05:50;;;;;;;6.95;3.53;;;22.10;76.40;;;;;;7872139;28;20242;-52
2021/12/17 17:09:36;;;;;;;7.18;3.38;;;22.10;76.30;;;;;;7872288;28;20637;-55
2021/12/17 17:13:21;;;;;;;8.13;3.95;;;22.20;76.10;;;;;;7873146;28;20173;-53
2021/12/17 17:17:07;;;;;;;10.00;3.63;;;22.20;76.00;;;;;;7872658;28;20602;-49
2021/12/17 17:20:53;;;;;;;9.82;3.65;;;22.30;75.90;;;;;;7872482;28;20252;-49
2021/12/17 17:24:38;;;;;;;6.13;3.47;;;22.40;75.70;;;;;;7873214;28;20189;-51
2021/12/17 17:28:24;;;;;;;8.18;3.70;;;22.40;75.50;;;;;;7872898;28;20205;-52
2021/12/17 17:32:09;;;;;;;8.07;3.42;;;22.50;75.40;;;;;;7872658;28;20177;-51
2021/12/17 17:35:55;;;;;;;7.72;4.10;;;22.50;75.40;;;;;;7872930;28;20503;-49
2021/12/17 17:39:41;;;;;;;11.55;3.72;;;22.60;75.50;;;;;;7871529;28;20775;-52
2021/12/17 17:43:26;;;;;;;4.78;3.47;;;22.60;75.50;;;;;;7871693;28;20537;-53
2021/12/17 17:47:11;;;;;;;5.78;3.47;;;22.70;75.60;;;;;;7871425;28;20205;-51
2021/12/17 17:50:57;;;;;;;6.35;3.53;;;22.80;75.60;;;;;;7872179;28;20175;-52
2021/12/17 17:54:42;;;;;;;7.75;3.70;;;22.80;75.60;;;;;;7871344;28;20173;-51
2021/12/17 17:58:28;;;;;;;5.00;3.17;;;22.90;75.70;;;;;;7870925;28;20606;-51
2021/12/17 18:02:16;;;;;;;5.80;3.15;;;22.90;75.70;;;;;;7870991;28;20181;-50
2021/12/17 18:06:03;;;;;;;5.05;3.35;;;23.00;75.70;;;;;;7870882;28;20209;-49
2021/12/17 18:09:48;;;;;;;4.72;3.20;;;23.10;75.70;;;;;;7870403;28;20303;-52
2021/12/17 18:13:34;;;;;;;6.13;3.33;;;23.10;75.70;;;;;;7870664;28;20173;-52
2021/12/17 18:17:19;;;;;;;4.95;2.90;;;23.10;75.60;;;;;;7871224;28;20197;-51
2021/12/17 18:21:05;;;;;;;6.60;3.10;;;23.10;75.70;;;;;;7870660;28;20307;-50
2021/12/17 18:24:50;;;;;;;5.68;3.10;;;23.10;75.80;;;;;;7870269;28;20181;-51
2021/12/17 18:28:36;;;;;;;4.78;3.50;;;23.00;75.70;;;;;;7869894;28;20213;-51
2021/12/17 18:32:21;;;;;;;4.85;3.40;;;23.00;75.80;;;;;;7869992;28;20177;-51
2021/12/17 18:36:07;;;;;;;4.05;3.00;;;23.00;75.90;;;;;;7870083;28;20669;-50
2021/12/17 18:39:53;;;;;;;4.95;3.28;;;23.00;75.90;;;;;;7843403;28;20260;-52
2021/12/17 18:47:42;;;;;;;7.68;3.30;;;22.90;76.30;;;;;;7849843;28;20674;-48
2021/12/17 18:51:28;;;;;;;7.28;3.28;;;22.80;76.50;;;;;;7868574;28;20598;-51
2021/12/17 18:55:14;;;;;;;7.47;3.05;;;22.80;76.80;;;;;;7838559;28;20505;-50
2021/12/17 18:59:00;;;;;;;6.78;3.28;;;22.80;76.90;;;;;;7841559;28;20213;-53
2021/12/17 19:02:46;;;;;;;17.83;3.90;;;22.80;77.20;;;;;;7838414;28;20611;-51
2021/12/17 19:06:33;;;;;;;8.02;3.25;;;22.70;77.30;;;;;;7838294;28;20248;-52
2021/12/17 19:10:18;;;;;;;8.80;3.75;;;22.70;77.40;;;;;;7837733;28;20221;-51
2021/12/17 19:14:06;;;;;;;6.20;3.28;;;22.70;77.50;;;;;;7842372;28;20197;-51
2021/12/17 19:17:53;;;;;;;8.13;3.55;;;22.70;77.60;;;;;;7869300;28;20200;-50
2021/12/17 19:21:43;;;;;;;10.40;3.67;;;22.70;77.80;;;;;;7869787;28;20212;-53
2021/12/17 19:25:33;;;;;;;4.57;3.10;;;22.70;77.80;;;;;;7869273;28;20227;-50
2021/12/17 19:29:19;;;;;;;4.80;3.00;;;22.80;78.00;;;;;;7868810;28;20274;-51
2021/12/17 19:33:06;;;;;;;9.18;3.30;;;22.90;78.00;;;;;;7868254;28;20181;-50
2021/12/17 19:36:51;;;;;;;6.82;2.90;;;23.00;78.10;;;;;;7868824;28;20183;-50
2021/12/17 19:40:37;;;;;;;6.45;3.20;;;23.20;78.10;;;;;;7868431;28;20177;-52
2021/12/17 19:44:22;;;;;;;4.85;3.17;;;23.30;78.90;;;;;;7868887;28;20185;-51
2021/12/17 19:52:15;;;;;;;7.63;2.65;;;23.50;77.70;;;;;;7868779;28;20631;-51
2021/12/17 19:56:03;;;;;;;2.95;2.30;;;23.60;77.60;;;;;;7868828;28;20261;-51
2021/12/17 19:59:48;;;;;;;6.15;2.78;;;23.70;77.50;;;;;;7868117;28;20675;-50
2021/12/17 20:03:38;;;;;;;5.32;2.63;;;23.70;77.50;;;;;;7874586;28;20559;-51
2021/12/17 20:07:24;;;;;;;5.10;2.78;;;23.70;77.50;;;;;;7874138;28;20205;-51
2021/12/17 20:11:09;;;;;;;4.70;2.80;;;23.70;77.60;;;;;;7874022;28;20185;-52
2021/12/17 20:14:55;;;;;;;5.13;2.80;;;23.70;77.70;;;;;;7874198;28;20177;-51
2021/12/17 20:18:41;;;;;;;5.28;2.95;;;23.70;77.80;;;;;;7873777;28;20208;-50
2021/12/17 20:22:27;;;;;;;3.90;2.53;;;23.70;77.90;;;;;;7873788;28;20209;-53
2021/12/17 20:26:13;;;;;;;5.53;2.65;;;23.60;78.10;;;;;;7867277;28;20190;-50
2021/12/17 20:29:59;;;;;;;9.32;2.80;;;23.60;78.10;;;;;;7842413;28;20296;-52
2021/12/17 20:33:45;;;;;;;5.57;2.70;;;23.50;78.20;;;;;;7842829;28;20243;-50
2021/12/17 20:37:30;;;;;;;5.75;2.40;;;23.50;78.30;;;;;;7842459;28;20202;-50
2021/12/17 20:41:16;;;;;;;5.75;2.72;;;23.50;78.50;;;;;;7842797;28;20190;-54
2021/12/17 20:45:04;;;;;;;10.25;2.92;;;23.40;78.50;;;;;;7843031;28;20189;-54
2021/12/17 20:48:49;;;;;;;4.70;2.55;;;23.30;78.70;;;;;;7842212;28;20225;-51
2021/12/17 20:52:35;;;;;;;4.35;2.90;;;23.30;78.80;;;;;;7842177;28;20174;-54
2021/12/17 20:56:20;;;;;;;6.80;2.88;;;23.20;78.90;;;;;;7843944;28;20186;-52
2021/12/17 21:00:13;;;;;;;8.35;2.85;;;23.20;79.00;;;;;;7841971;28;20832;-50
2021/12/17 21:04:01;;;;;;;4.63;2.80;;;23.00;79.00;;;;;;7842188;28;20630;-51
2021/12/17 21:07:47;;;;;;;7.25;2.72;;;23.00;79.00;;;;;;7841351;28;20248;-53
2021/12/17 21:11:42;;;;;;;5.18;2.47;;;22.90;78.80;;;;;;7845543;28;20251;-51
2021/12/17 21:15:28;;;;;;;12.48;3.00;;;22.90;78.80;;;;;;7868696;28;20224;-51
2021/12/17 21:19:16;;;;;;;5.68;2.35;;;22.80;78.90;;;;;;7841050;28;20260;-51
2021/12/17 21:23:02;;;;;;;11.20;2.85;;;22.80;79.10;;;;;;7861193;28;20669;-51
2021/12/17 21:26:49;;;;;;;12.25;2.55;;;22.70;79.70;;;;;;7851797;28;20192;-53
2021/12/17 21:30:34;;;;;;;8.88;2.90;;;22.60;80.90;;;;;;7854906;28;20240;-50
2021/12/17 21:34:21;;;;;;;10.63;2.70;;;22.50;81.90;;;;;;7850936;28;20183;-51
2021/12/17 21:38:07;;;;;;;10.18;2.70;;;22.50;82.40;;;;;;7859102;28;20209;-51
2021/12/17 21:41:56;;;;;;;9.45;2.80;;;22.40;82.40;;;;;;7843203;28;20277;-52
2021/12/17 21:45:41;;;;;;;13.80;2.67;;;22.40;82.80;;;;;;7852540;28;20185;-50
2021/12/17 21:49:26;;;;;;;8.50;2.13;;;22.30;83.10;;;;;;7840234;28;20262;-51
2021/12/17 21:53:12;;;;;;;9.23;3.03;;;22.30;83.30;;;;;;7840425;28;20173;-50
2021/12/17 21:56:58;;;;;;;18.10;3.08;;;22.20;82.80;;;;;;7840145;28;20194;-51
2021/12/17 22:00:44;;;;;;;14.55;2.88;;;22.20;83.10;;;;;;7869164;28;20689;-50
2021/12/17 22:04:31;;;;;;;17.73;3.55;;;22.10;83.10;;;;;;7870995;28;20548;-50
2021/12/17 22:08:16;;;;;;;10.90;2.83;;;22.10;83.00;;;;;;7870482;28;20216;-54
2021/12/17 22:12:06;;;;;;;7.47;2.60;;;22.00;82.80;;;;;;7866721;28;20232;-50
2021/12/17 22:15:53;;;;;;;13.70;2.75;;;21.90;82.70;;;;;;7870462;28;20219;-53
2021/12/17 22:19:45;;;;;;;9.20;2.75;;;21.90;82.50;;;;;;7868918;28;20200;-51
2021/12/17 22:23:31;;;;;;;14.18;3.38;;;21.80;82.50;;;;;;7870274;28;20293;-53
2021/12/17 22:27:16;;;;;;;10.82;2.40;;;21.80;82.30;;;;;;7870093;28;20201;-52
2021/12/17 22:31:02;;;;;;;5.13;2.50;;;21.80;82.40;;;;;;7870555;28;20255;-51
2021/12/17 22:34:48;;;;;;;5.88;2.67;;;21.70;82.20;;;;;;7870288;28;20252;-51